Mitchell, SD (57301)

12:08 AM CST on February 08, 2016 (GMT -0600)
Pleasant Hills | | Change Station
CLOSE
Current Station
Personal Weather Station
Location: Mitchell, SD
Elevation: 1285 ft
Nearby Weather Stations
Active Advisory: Wind Advisory Active Notice: Public Information Statement

Elev 1285 ft 43.73 °N, 98.01 °W | Updated 2 minutes ago

Overcast
Overcast
28.9 °F
Feels Like 19 °F
N
11.4
Wind Variable Wind from NW
Gusts 15.9 mph

Today
High -- | Low -- °F
--% Chance of Precip.
Yesterday
High -- | Low -- °F
Precip. -- in
Pressure 30.11 in
Visibility 10.0 miles
Clouds Clear
Windchill 19 °F
Dew Point 19 °F
Humidity 66%
Rainfall 0.01 in
Snow Depth Not available.
7:41 AM 5:52 PM
Waning Crescent, 0% visible
METAR KMHE 080553Z AUTO 33024G32KT 10SM CLR M02/M07 A3006 RMK AO2 PK WND 34040/0529 SLP196 60000 T10171067 10006 21017 400441017 53006
Pressure 30.11 in
Visibility 10.0 miles
Clouds Clear
Windchill 19 °F
Dew Point 19 °F
Humidity 66%
Rainfall 0.01 in
Snow Depth Not available.
7:41 AM 5:52 PM
Waning Crescent, 0% visible
METAR KMHE 080553Z AUTO 33024G32KT 10SM CLR M02/M07 A3006 RMK AO2 PK WND 34040/0529 SLP196 60000 T10171067 10006 21017 400441017 53006

10-Day Weather Forecast

Almanac

Astronomy

Feb. 08, 2016 Rise Set
Actual Time
Civil Twilight
Nautical Twilight
Astronomical Twilight
Moon
Length of Visible Light
Length of Day
Tomorrow will be .
, % of the Moon is Illuminated

Today's Extremes

State Highs State Lows

Community

WunderPhotos

Upload Photos

1,891,392 photos uploaded!

WunderBlog® & News

Nearby

Air Quality

  Air Quality AQ Index Pollutant
Not available.

Snow Depth

Station Depth Elevation

Earthquake Activity

City Distance Mag. Time & Date
Minimum magnitude displayed is 2.5.

Coastal Water Temperatures

Place Temperature

Stations

Nearby Weather Stations

Station Location Temp. Windchill Dew Point Humidity Wind Precip. Elev Updated Type
                   

Watches & Warnings

Wind Advisory
Issued: 8:53 PM CST Feb. 7, 2016 – National Weather Service

... Wind Advisory remains in effect until noon CST Monday...

* timing... the strongest winds should occur from late morning
through early evening. Windy conditions will continue through
all of Sunday night.

* Weather conditions... sustained wind speeds between 25 and 35 mph
are likely... with gusts to 45 mph. The gusty winds will decrease
slightly later tonight into Monday.

* Snow accumulations/impacts... snow showers are expected across
the advisory area this evening. With fresh accumulations up to
around an inch... areas of blowing snow may develop and lead to
lower visibility and travel difficulties through Monday morning.

Precautionary/preparedness actions...

A Wind Advisory is issued when sustained winds are forecast to be
31 to 39 mph or gusts will range between 46 and 57 mph. Winds of
these magnitudes may cause minor property damage without extra
precautions. Motorists in high profile vehicles should use
caution until the winds subside.